Terminal Aerodrome Forecast
Issued by NWS Charleston, SC

Home | Current Version | Previous Version | Text Only | Print | Product List | Glossary On
Versions: 1 2 3 4 5 6 7 8 9 10 11 12 13 14 15 16 17 18 19 20 21 22 23 24
000
FTUS42 KCHS 222046 AAA
TAFSAV
TAF AMD
KSAV 222046Z 2221/2318 25006KT P6SM VCTS SCT030CB BKN200 BKN250
      TEMPO 2221/2223 VRB10KT 6SM -TSRA BR SCT020 BKN050CB
     FM222300 16008KT P6SM BKN200
     FM231000 19004KT P6SM BKN060
     FM231200 20006KT P6SM BKN030
     FM231600 18007KT P6SM BKN045=

USA.gov is the U.S. government's official web portal to all federal, state and local government web resources and services.